الصفحة الرئيسية
METAR-TAF:

METAR-TAF

مطار :

فينيا ديل مار, تشيلي

دائرة عرض: 32-56-59S, خط طول: 71-28-43W, ارتفاع: 141 متر

مراقبة الطقس الحالي

تاريخ ووقت الإصدار 57 دقيقة قبل الساعة 21:00UTC
ريح 6 عقدة من الجنوب الغربي
درجة الحرارة 16°درجة مئوية
الرطوبة 59%
ضغط 1018 hPa
الرؤية 10 كم أو أكثر
غيوم قليلة على ارتفاع 5000 قدم

METAR: SCVM 212100Z 23006KT 9999 FEW050 16/08 Q1018

زمن: 17:57 (21:57 UTC)

توقعات

تاريخ ووقت الإصدار 5ساعات و 47 دقيقة قبل الساعة 16:10UTC
التوقعات صالحة من21 الساعة 18 UTC إلى 22 الساعة 18 UTC
ريح 10 عقدة من الجنوب/الجنوب الغربي
الرؤية 10 كم أو أكثر
غيوم قليلة على ارتفاع 5000 قدم
أصبح
من 21 الساعة 20 UTC إلى 21 الساعة 22 UTC
الرؤية 10 كم أو أكثر
الغيوم لا تقل 1500 م ولا وجود لمزنة ركامية السحاب الأسود
أصبح
من 22 الساعة 01 UTC إلى 22 الساعة 03 UTC
ريح 4 عقدة من الجنوب/الجنوب الشرقي
أصبح
من 22 الساعة 13 UTC إلى 22 الساعة 15 UTC
ريح 8 عقدة من الغرب/الشمال الغربي

TAF: SCVM 211610Z 2118/2218 20010KT 9999 FEW050 TX15/2119Z TN05/2210Z BECMG 2120/2122 CAVOK BECMG 2201/2203 15004KT BECMG 2213/2215 30008KT

أرصاد الطقس والتوقعات من أكثر من 4000 مطار (تقارير الطقس للمطار METAR والتنبؤ بالطقس بالمطارTAF).

المحطات المتاحة هي النقط الصفراء والحمراء على الخريطة.

حرك المؤشر فوق النقطة لمعرفة اسم المحطة.

ثم انقر لمعرفة أرصاد وتوقعات الطقس.

لتغيير الخارطة: اضغط على الأزرار الخضراء مع رمز الصليب الأسود للتكبير. على الزر الأخضر مع شرطة للتصغير، أو على الأسهم الخضراء للخرائط المجاورة.


METAR-TAF: